Terminal Aerodrome Forecast
Issued by NWS Topeka, KS

Home | Current Version | Previous Version | Graphics & Text | Print | Product List | Glossary On
Versions: 1 2 3 4 5 6 7 8 9 10 11 12 13 14 15 16
539
FTUS43 KTOP 271733
TAFTOP
TAF
KTOP 271733Z 2718/2818 15010KT P6SM VCTS SCT060CB BKN250
     FM272200 35008KT P6SM SCT080
     FM280200 34009KT P6SM SCT025
     FM280900 32008KT P6SM SCT120=

USA.gov is the U.S. government's official web portal to all federal, state and local government web resources and services.